Cape Henlopen — WM5958 — position and weather

sailwx.info

Track history (hours):
 
Tides and Currents Weather Stations Pressure Air Temp Water Temp Dewpoint Dewpoint Depression Visibility Wind Speed Wind Dir Waves Ship Positions

Cape Henlopen

Owner: CROSS SOUND FERRY SERV INC, NEW LONDON, CT. More information available from US FCC via Universal Licensing System and Coast Guard Vessel Documentation Center.

Last reported at 2017-Oct-22 18:30 UTC. Time now 2017-Oct-22 19:00 UTC.
Position N 41°17' W 072°06'.

Length 94 m; draft 2.7 m.

Type: Passenger vessel. MMSI: 367354360.

Date/timePositionNaut miles runAvg speedWind from/ knotsBaromVisibWave heightAir tempDewpointWater temp
2017-Oct-22 18:30N 41°17' W 072°06'3 2.1
2017-Oct-22 17:13N 41°19' W 072°05'312.0
2017-Oct-22 17:00N 41°17' W 072°06'611.5
2017-Oct-22 16:30N 41°13' W 072°11'4 8.0
2017-Oct-22 16:00N 41°09' W 072°14'0 0.0
2017-Oct-22 15:30N 41°09' W 072°14'2 4.4
2017-Oct-22 15:00N 41°11' W 072°13'713.5
2017-Oct-22 14:30N 41°16' W 072°07'4 3.7
2017-Oct-22 13:20N 41°20' W 072°05'410.8
2017-Oct-22 12:59N 41°17' W 072°07'611.5
2017-Oct-22 12:29N 41°12' W 072°12'4 6.5
2017-Oct-22 11:54N 41°09' W 072°14'0 0.0
2017-Oct-22 11:29N 41°09' W 072°14'0 0.0
2017-Oct-22 11:01N 41°09' W 072°14'0 0.0
2017-Oct-22 01:43N 41°09' W 072°14'0 0.0
2017-Oct-22 01:30N 41°09' W 072°14'4 7.6
2017-Oct-22 00:59N 41°13' W 072°12'7 3.9
2017-Oct-21 23:06N 41°18' W 072°05'111.8
2017-Oct-21 23:00N 41°17' W 072°05'612.8
2017-Oct-21 22:30N 41°13' W 072°11'4 8.0
2017-Oct-21 22:00N 41°09' W 072°14'0 0.0
2017-Oct-21 21:30N 41°09' W 072°14'4 7.8
2017-Oct-21 21:00N 41°13' W 072°12'510.3
2017-Oct-21 20:29N 41°16' W 072°07'2 1.5
2017-Oct-21 19:05N 41°18' W 072°05'112.3
2017-Oct-21 19:00N 41°17' W 072°05'713.5
2017-Oct-21 18:31N 41°12' W 072°11'4 7.6
2017-Oct-21 18:00N 41°09' W 072°14'0 0.0
2017-Oct-21 17:30N 41°09' W 072°14'3 6.8
2017-Oct-21 17:01N 41°12' W 072°12'612.2
2017-Oct-21 16:30N 41°17' W 072°06'2 1.4
2017-Oct-21 15:10N 41°18' W 072°05'212.0
2017-Oct-21 15:00N 41°17' W 072°07'510.8
2017-Oct-21 14:31N 41°13' W 072°11'4 4.1
2017-Oct-21 13:30N 41°09' W 072°14'3 5.5
2017-Oct-21 13:00N 41°12' W 072°13'9 0.8
2017-Oct-21 01:15N 41°19' W 072°05'311.1
2017-Oct-21 00:59N 41°16' W 072°07'510.9
2017-Oct-21 00:30N 41°12' W 072°12'4 7.5
2017-Oct-21 00:00N 41°09' W 072°14'0 0.0
2017-Oct-20 23:30N 41°09' W 072°14'4 7.8
2017-Oct-20 23:00N 41°13' W 072°12'2 1.0
2017-Oct-20 20:41N 41°14' W 072°09'214.2
2017-Oct-20 20:30N 41°12' W 072°11'4 7.1
2017-Oct-20 19:59N 41°09' W 072°14'0 0.0
2017-Oct-20 19:30N 41°09' W 072°14'4 7.6
2017-Oct-20 19:00N 41°13' W 072°12'6 3.0
2017-Oct-20 16:57N 41°17' W 072°06'612.4
2017-Oct-20 16:30N 41°13' W 072°11'4 7.9
2017-Oct-20 15:57N 41°09' W 072°14'0 0.0
2017-Oct-20 15:28N 41°09' W 072°14'3 7.4
2017-Oct-20 15:00N 41°12' W 072°13'7 3.9
2017-Oct-20 13:08N 41°17' W 072°05'211.8
2017-Oct-20 13:00N 41°16' W 072°07'510.5
2017-Oct-20 12:30N 41°12' W 072°12'4 7.3
2017-Oct-20 12:01N 41°09' W 072°14'0 0.0
2017-Oct-20 11:30N 41°09' W 072°14'0 0.0
2017-Oct-20 11:01N 41°09' W 072°14'0 0.0
2017-Oct-20 01:16N 41°09' W 072°14'1 4.2
2017-Oct-20 00:55N 41°11' W 072°14'613.1
2017-Oct-20 00:30N 41°15' W 072°09'4 3.2
2017-Oct-19 23:06N 41°18' W 072°05'311.4
2017-Oct-19 22:52N 41°16' W 072°07'412.1
2017-Oct-19 22:30N 41°13' W 072°11'4 8.8
2017-Oct-19 22:00N 41°09' W 072°14'1 1.5
2017-Oct-19 21:19N 41°10' W 072°13'3 9.4
2017-Oct-19 21:00N 41°12' W 072°12'6 3.0
2017-Oct-19 18:55N 41°17' W 072°06'613.9
2017-Oct-19 18:30N 41°13' W 072°11'4 8.7
2017-Oct-19 18:00N 41°09' W 072°14'1 1.9
2017-Oct-19 17:19N 41°10' W 072°13'3 9.2
2017-Oct-19 17:00N 41°13' W 072°12'7 3.5
2017-Oct-19 15:07N 41°17' W 072°05'212.6
2017-Oct-19 14:57N 41°16' W 072°07'511.4
2017-Oct-19 14:30N 41°12' W 072°12'3 6.5
2017-Oct-19 14:00N 41°09' W 072°14'0 0.0
2017-Oct-19 13:30N 41°09' W 072°14'4 7.2
2017-Oct-19 13:00N 41°12' W 072°12'8 0.6
2017-Oct-19 00:55N 41°18' W 072°05'511.4
2017-Oct-19 00:28N 41°14' W 072°09'510.3
2017-Oct-19 00:00N 41°10' W 072°13'1 2.7
2017-Oct-18 23:30N 41°09' W 072°14'3 6.2
2017-Oct-18 23:00N 41°12' W 072°13'8 4.5
2017-Oct-18 21:07N 41°18' W 072°05'212.0
2017-Oct-18 20:59N 41°17' W 072°05'712.5
2017-Oct-18 20:26N 41°12' W 072°12'3 7.5
2017-Oct-18 20:01N 41°09' W 072°14'1 0.9
2017-Oct-18 19:28N 41°09' W 072°14'4 9.6
2017-Oct-18 19:00N 41°13' W 072°11'510.5
2017-Oct-18 18:30N 41°17' W 072°06'2 1.1
2017-Oct-18 17:05N 41°18' W 072°05'112.5
2017-Oct-18 17:00N 41°17' W 072°06'713.5
2017-Oct-18 16:30N 41°12' W 072°12'4 6.9
2017-Oct-18 15:58N 41°09' W 072°14'0 0.0
2017-Oct-18 15:29N 41°09' W 072°14'6 8.4
2017-Oct-18 14:49N 41°14' W 072°10'2 1.3
2017-Oct-18 12:57N 41°16' W 072°08'510.4
2017-Oct-18 12:30N 41°12' W 072°12'4 6.8
2017-Oct-18 11:59N 41°09' W 072°14'0 0.0
2017-Oct-18 11:30N 41°09' W 072°14'0 0.0
2017-Oct-18 11:00N 41°09' W 072°14'0 0.0
2017-Oct-18 01:17N 41°09' W 072°14'2 4.4
2017-Oct-18 00:55N 41°11' W 072°14'512.8
2017-Oct-18 00:30N 41°15' W 072°09'4 3.2
2017-Oct-17 23:10N 41°18' W 072°05'211.0
2017-Oct-17 23:00N 41°16' W 072°07'510.9
2017-Oct-17 22:30N 41°12' W 072°12'4 7.9
2017-Oct-17 22:01N 41°09' W 072°14'0 0.0
2017-Oct-17 21:30N 41°09' W 072°14'4 7.6
2017-Oct-17 20:58N 41°13' W 072°12'7 3.9
2017-Oct-17 19:05N 41°18' W 072°05'112.0
2017-Oct-17 19:01N 41°17' W 072°05'713.3
2017-Oct-17 18:30N 41°12' W 072°11'3 2.9
2017-Oct-17 17:22N 41°09' W 072°13'3 9.6
2017-Oct-17 17:00N 41°13' W 072°11'7 3.8
2017-Oct-17 15:08N 41°18' W 072°05'212.4
2017-Oct-17 15:00N 41°17' W 072°06'612.4
2017-Oct-17 14:30N 41°12' W 072°12'3 2.5
2017-Oct-17 13:16N 41°09' W 072°13'311.0
2017-Oct-17 12:59N 41°12' W 072°12'8 0.7
2017-Oct-17 00:53N 41°18' W 072°05'511.7
2017-Oct-17 00:27N 41°14' W 072°09'510.9
2017-Oct-17 00:00N 41°10' W 072°13'1 2.7
2017-Oct-16 23:30N 41°09' W 072°14'3 5.7
2017-Oct-16 22:57N 41°12' W 072°13'8 4.6
2017-Oct-16 21:10N 41°18' W 072°05'211.3
2017-Oct-16 21:00N 41°17' W 072°06'611.5
2017-Oct-16 20:30N 41°12' W 072°12'4 7.4
2017-Oct-16 20:00N 41°09' W 072°14'0 0.0
2017-Oct-16 19:28N 41°09' W 072°14'4 8.4
2017-Oct-16 18:59N 41°12' W 072°11'7 3.8
2017-Oct-16 17:05N 41°18' W 072°05'111.4
2017-Oct-16 17:00N 41°17' W 072°06'713.0
2017-Oct-16 16:30N 41°12' W 072°11'4 6.6
2017-Oct-16 15:56N 41°09' W 072°14'0 0.2
2017-Oct-16 15:30N 41°09' W 072°14'4 8.6
2017-Oct-16 15:00N 41°13' W 072°11'6 2.9
2017-Oct-16 13:03N 41°17' W 072°06'112.5
2017-Oct-16 13:00N 41°16' W 072°07'611.3
2017-Oct-16 12:30N 41°12' W 072°12'4 6.9
2017-Oct-16 11:59N 41°09' W 072°14'0 0.0
2017-Oct-16 11:28N 41°09' W 072°14'0 0.0
2017-Oct-16 02:30N 41°09' W 072°14'0 0.0
2017-Oct-16 01:59N 41°09' W 072°14'1 1.8
2017-Oct-16 01:22N 41°10' W 072°13'510.1
2017-Oct-16 00:55N 41°14' W 072°10'6 3.2
2017-Oct-15 23:09N 41°18' W 072°05'511.6
2017-Oct-15 22:45N 41°14' W 072°09'310.7
2017-Oct-15 22:30N 41°12' W 072°11'4 8.0
2017-Oct-15 22:00N 41°09' W 072°14'0 0.0
2017-Oct-15 21:30N 41°09' W 072°14'3 5.9
2017-Oct-15 20:59N 41°12' W 072°13'7 3.3
2017-Oct-15 18:56N 41°16' W 072°06'612.7
2017-Oct-15 18:30N 41°12' W 072°11'4 8.0
2017-Oct-15 18:00N 41°09' W 072°14'0 0.0
2017-Oct-15 17:30N 41°09' W 072°14'4 7.5
2017-Oct-15 16:59N 41°13' W 072°11'7 3.8
2017-Oct-15 15:06N 41°18' W 072°05'112.3
2017-Oct-15 15:00N 41°17' W 072°06'10 9.8
2017-Oct-15 13:59N 41°09' W 072°14'0 0.1
2017-Oct-15 13:28N 41°09' W 072°14'5 8.6
2017-Oct-15 12:55N 41°13' W 072°11'6 0.5
2017-Oct-15 00:58N 41°17' W 072°06'612.8
2017-Oct-15 00:30N 41°13' W 072°11'4 3.0
2017-Oct-14 23:17N 41°09' W 072°13'310.7
2017-Oct-14 23:00N 41°12' W 072°13'6 3.1
2017-Oct-14 21:01N 41°16' W 072°07'012.0
2017-Oct-14 21:01N 41°16' W 072°07'510.8
2017-Oct-14 20:31N 41°12' W 072°12'3 2.8
2017-Oct-14 19:16N 41°09' W 072°14'310.1
2017-Oct-14 19:00N 41°12' W 072°12'7 3.7
2017-Oct-14 17:02N 41°17' W 072°05'012.0
2017-Oct-14 17:00N 41°16' W 072°05'612.6
2017-Oct-14 16:30N 41°12' W 072°12'3 2.8
2017-Oct-14 15:23N 41°09' W 072°13'4 9.8
2017-Oct-14 15:00N 41°13' W 072°11'6 3.1
2017-Oct-14 13:03N 41°17' W 072°06'113.1
2017-Oct-14 12:56N 41°16' W 072°07'512.8
2017-Oct-14 12:30N 41°12' W 072°12'3 2.8
2017-Oct-14 11:21N 41°09' W 072°14'0 0.0
2017-Oct-14 10:55N 41°09' W 072°14'9 0.7
2017-Oct-13 23:01N 41°16' W 072°07'012.1
2017-Oct-13 22:59N 41°16' W 072°08'712.0
2017-Oct-13 22:26N 41°11' W 072°13'1 1.4
2017-Oct-13 21:29N 41°09' W 072°13'9 3.9
2017-Oct-13 19:16N 41°16' W 072°07'310.7
2017-Oct-13 19:01N 41°14' W 072°09'510.5
2017-Oct-13 18:30N 41°10' W 072°13'1 0.6
2017-Oct-13 17:33N 41°09' W 072°13'1 5.4
2017-Oct-13 17:20N 41°11' W 072°13'411.1
2017-Oct-13 17:00N 41°13' W 072°10'4 2.2
2017-Oct-13 15:11N 41°16' W 072°06'212.3
2017-Oct-13 15:00N 41°14' W 072°08'611.9
2017-Oct-13 14:30N 41°10' W 072°13'1 1.8
2017-Oct-13 13:54N 41°09' W 072°14'1 2.4
2017-Oct-13 13:25N 41°10' W 072°13'3 7.6
2017-Oct-13 13:00N 41°12' W 072°11'6 0.5
2017-Oct-13 01:03N 41°17' W 072°05'112.2
2017-Oct-13 00:59N 41°16' W 072°06'613.2
2017-Oct-13 00:30N 41°12' W 072°12'3 6.2
2017-Oct-12 23:59N 41°09' W 072°14'1 1.7
2017-Oct-12 23:20N 41°10' W 072°13'3 9.0
2017-Oct-12 22:59N 41°13' W 072°11'6 2.9
2017-Oct-12 21:01N 41°17' W 072°06'012.3
2017-Oct-12 21:01N 41°17' W 072°07'611.2
2017-Oct-12 20:30N 41°13' W 072°12'4 3.0
2017-Oct-12 19:18N 41°09' W 072°13'310.8
2017-Oct-12 18:59N 41°13' W 072°12'  
Track history (hours):
 
Tides and Currents Weather Stations Pressure Air Temp Water Temp Dewpoint Dewpoint Depression Visibility Wind Speed Wind Dir Waves Ship Positions

Cape Henlopen

Owner: CROSS SOUND FERRY SERV INC, NEW LONDON, CT. More information available from US FCC via Universal Licensing System and Coast Guard Vessel Documentation Center.

Last reported at 2017-Oct-22 18:30 UTC. Time now 2017-Oct-22 19:00 UTC.
Position N 41°17' W 072°06'.

Length 94 m; draft 2.7 m.

Type: Passenger vessel. MMSI: 367354360.

Date/timePositionNaut miles runAvg speedWind from/ knotsBaromVisibWave heightAir tempDewpointWater temp
2017-Oct-22 18:30N 41°17' W 072°06'3 2.1
2017-Oct-22 17:13N 41°19' W 072°05'312.0
2017-Oct-22 17:00N 41°17' W 072°06'611.5
2017-Oct-22 16:30N 41°13' W 072°11'4 8.0
2017-Oct-22 16:00N 41°09' W 072°14'0 0.0
2017-Oct-22 15:30N 41°09' W 072°14'2 4.4
2017-Oct-22 15:00N 41°11' W 072°13'713.5
2017-Oct-22 14:30N 41°16' W 072°07'4 3.7
2017-Oct-22 13:20N 41°20' W 072°05'410.8
2017-Oct-22 12:59N 41°17' W 072°07'611.5
2017-Oct-22 12:29N 41°12' W 072°12'4 6.5
2017-Oct-22 11:54N 41°09' W 072°14'0 0.0
2017-Oct-22 11:29N 41°09' W 072°14'0 0.0
2017-Oct-22 11:01N 41°09' W 072°14'0 0.0
2017-Oct-22 01:43N 41°09' W 072°14'0 0.0
2017-Oct-22 01:30N 41°09' W 072°14'4 7.6
2017-Oct-22 00:59N 41°13' W 072°12'7 3.9
2017-Oct-21 23:06N 41°18' W 072°05'111.8
2017-Oct-21 23:00N 41°17' W 072°05'612.8
2017-Oct-21 22:30N 41°13' W 072°11'4 8.0
2017-Oct-21 22:00N 41°09' W 072°14'0 0.0
2017-Oct-21 21:30N 41°09' W 072°14'4 7.8
2017-Oct-21 21:00N 41°13' W 072°12'510.3
2017-Oct-21 20:29N 41°16' W 072°07'2 1.5
2017-Oct-21 19:05N 41°18' W 072°05'112.3
2017-Oct-21 19:00N 41°17' W 072°05'713.5
2017-Oct-21 18:31N 41°12' W 072°11'4 7.6
2017-Oct-21 18:00N 41°09' W 072°14'0 0.0
2017-Oct-21 17:30N 41°09' W 072°14'3 6.8
2017-Oct-21 17:01N 41°12' W 072°12'612.2
2017-Oct-21 16:30N 41°17' W 072°06'2 1.4
2017-Oct-21 15:10N 41°18' W 072°05'212.0
2017-Oct-21 15:00N 41°17' W 072°07'510.8
2017-Oct-21 14:31N 41°13' W 072°11'4 4.1
2017-Oct-21 13:30N 41°09' W 072°14'3 5.5
2017-Oct-21 13:00N 41°12' W 072°13'9 0.8
2017-Oct-21 01:15N 41°19' W 072°05'311.1
2017-Oct-21 00:59N 41°16' W 072°07'510.9
2017-Oct-21 00:30N 41°12' W 072°12'4 7.5
2017-Oct-21 00:00N 41°09' W 072°14'0 0.0
2017-Oct-20 23:30N 41°09' W 072°14'4 7.8
2017-Oct-20 23:00N 41°13' W 072°12'2 1.0
2017-Oct-20 20:41N 41°14' W 072°09'214.2
2017-Oct-20 20:30N 41°12' W 072°11'4 7.1
2017-Oct-20 19:59N 41°09' W 072°14'0 0.0
2017-Oct-20 19:30N 41°09' W 072°14'4 7.6
2017-Oct-20 19:00N 41°13' W 072°12'6 3.0
2017-Oct-20 16:57N 41°17' W 072°06'612.4
2017-Oct-20 16:30N 41°13' W 072°11'4 7.9
2017-Oct-20 15:57N 41°09' W 072°14'0 0.0
2017-Oct-20 15:28N 41°09' W 072°14'3 7.4
2017-Oct-20 15:00N 41°12' W 072°13'7 3.9
2017-Oct-20 13:08N 41°17' W 072°05'211.8
2017-Oct-20 13:00N 41°16' W 072°07'510.5
2017-Oct-20 12:30N 41°12' W 072°12'4 7.3
2017-Oct-20 12:01N 41°09' W 072°14'0 0.0
2017-Oct-20 11:30N 41°09' W 072°14'0 0.0
2017-Oct-20 11:01N 41°09' W 072°14'0 0.0
2017-Oct-20 01:16N 41°09' W 072°14'1 4.2
2017-Oct-20 00:55N 41°11' W 072°14'613.1
2017-Oct-20 00:30N 41°15' W 072°09'4 3.2
2017-Oct-19 23:06N 41°18' W 072°05'311.4
2017-Oct-19 22:52N 41°16' W 072°07'412.1
2017-Oct-19 22:30N 41°13' W 072°11'4 8.8
2017-Oct-19 22:00N 41°09' W 072°14'1 1.5
2017-Oct-19 21:19N 41°10' W 072°13'3 9.4
2017-Oct-19 21:00N 41°12' W 072°12'6 3.0
2017-Oct-19 18:55N 41°17' W 072°06'613.9
2017-Oct-19 18:30N 41°13' W 072°11'4 8.7
2017-Oct-19 18:00N 41°09' W 072°14'1 1.9
2017-Oct-19 17:19N 41°10' W 072°13'3 9.2
2017-Oct-19 17:00N 41°13' W 072°12'7 3.5
2017-Oct-19 15:07N 41°17' W 072°05'212.6
2017-Oct-19 14:57N 41°16' W 072°07'511.4
2017-Oct-19 14:30N 41°12' W 072°12'3 6.5
2017-Oct-19 14:00N 41°09' W 072°14'0 0.0
2017-Oct-19 13:30N 41°09' W 072°14'4 7.2
2017-Oct-19 13:00N 41°12' W 072°12'8 0.6
2017-Oct-19 00:55N 41°18' W 072°05'511.4
2017-Oct-19 00:28N 41°14' W 072°09'510.3
2017-Oct-19 00:00N 41°10' W 072°13'1 2.7
2017-Oct-18 23:30N 41°09' W 072°14'3 6.2
2017-Oct-18 23:00N 41°12' W 072°13'8 4.5
2017-Oct-18 21:07N 41°18' W 072°05'212.0
2017-Oct-18 20:59N 41°17' W 072°05'712.5
2017-Oct-18 20:26N 41°12' W 072°12'3 7.5
2017-Oct-18 20:01N 41°09' W 072°14'1 0.9
2017-Oct-18 19:28N 41°09' W 072°14'4 9.6
2017-Oct-18 19:00N 41°13' W 072°11'510.5
2017-Oct-18 18:30N 41°17' W 072°06'2 1.1
2017-Oct-18 17:05N 41°18' W 072°05'112.5
2017-Oct-18 17:00N 41°17' W 072°06'713.5
2017-Oct-18 16:30N 41°12' W 072°12'4 6.9
2017-Oct-18 15:58N 41°09' W 072°14'0 0.0
2017-Oct-18 15:29N 41°09' W 072°14'6 8.4
2017-Oct-18 14:49N 41°14' W 072°10'2 1.3
2017-Oct-18 12:57N 41°16' W 072°08'510.4
2017-Oct-18 12:30N 41°12' W 072°12'4 6.8
2017-Oct-18 11:59N 41°09' W 072°14'0 0.0
2017-Oct-18 11:30N 41°09' W 072°14'0 0.0
2017-Oct-18 11:00N 41°09' W 072°14'0 0.0
2017-Oct-18 01:17N 41°09' W 072°14'2 4.4
2017-Oct-18 00:55N 41°11' W 072°14'512.8
2017-Oct-18 00:30N 41°15' W 072°09'4 3.2
2017-Oct-17 23:10N 41°18' W 072°05'211.0
2017-Oct-17 23:00N 41°16' W 072°07'510.9
2017-Oct-17 22:30N 41°12' W 072°12'4 7.9
2017-Oct-17 22:01N 41°09' W 072°14'0 0.0
2017-Oct-17 21:30N 41°09' W 072°14'4 7.6
2017-Oct-17 20:58N 41°13' W 072°12'7 3.9
2017-Oct-17 19:05N 41°18' W 072°05'112.0
2017-Oct-17 19:01N 41°17' W 072°05'713.3
2017-Oct-17 18:30N 41°12' W 072°11'3 2.9
2017-Oct-17 17:22N 41°09' W 072°13'3 9.6
2017-Oct-17 17:00N 41°13' W 072°11'7 3.8
2017-Oct-17 15:08N 41°18' W 072°05'212.4
2017-Oct-17 15:00N 41°17' W 072°06'612.4
2017-Oct-17 14:30N 41°12' W 072°12'3 2.5
2017-Oct-17 13:16N 41°09' W 072°13'311.0
2017-Oct-17 12:59N 41°12' W 072°12'8 0.7
2017-Oct-17 00:53N 41°18' W 072°05'511.7
2017-Oct-17 00:27N 41°14' W 072°09'510.9
2017-Oct-17 00:00N 41°10' W 072°13'1 2.7
2017-Oct-16 23:30N 41°09' W 072°14'3 5.7
2017-Oct-16 22:57N 41°12' W 072°13'8 4.6
2017-Oct-16 21:10N 41°18' W 072°05'211.3
2017-Oct-16 21:00N 41°17' W 072°06'611.5
2017-Oct-16 20:30N 41°12' W 072°12'4 7.4
2017-Oct-16 20:00N 41°09' W 072°14'0 0.0
2017-Oct-16 19:28N 41°09' W 072°14'4 8.4
2017-Oct-16 18:59N 41°12' W 072°11'7 3.8
2017-Oct-16 17:05N 41°18' W 072°05'111.4
2017-Oct-16 17:00N 41°17' W 072°06'713.0
2017-Oct-16 16:30N 41°12' W 072°11'4 6.6
2017-Oct-16 15:56N 41°09' W 072°14'0 0.2
2017-Oct-16 15:30N 41°09' W 072°14'4 8.6
2017-Oct-16 15:00N 41°13' W 072°11'6 2.9
2017-Oct-16 13:03N 41°17' W 072°06'112.5
2017-Oct-16 13:00N 41°16' W 072°07'611.3
2017-Oct-16 12:30N 41°12' W 072°12'4 6.9
2017-Oct-16 11:59N 41°09' W 072°14'0 0.0
2017-Oct-16 11:28N 41°09' W 072°14'0 0.0
2017-Oct-16 02:30N 41°09' W 072°14'0 0.0
2017-Oct-16 01:59N 41°09' W 072°14'1 1.8
2017-Oct-16 01:22N 41°10' W 072°13'510.1
2017-Oct-16 00:55N 41°14' W 072°10'6 3.2
2017-Oct-15 23:09N 41°18' W 072°05'511.6
2017-Oct-15 22:45N 41°14' W 072°09'310.7
2017-Oct-15 22:30N 41°12' W 072°11'4 8.0
2017-Oct-15 22:00N 41°09' W 072°14'0 0.0
2017-Oct-15 21:30N 41°09' W 072°14'3 5.9
2017-Oct-15 20:59N 41°12' W 072°13'7 3.3
2017-Oct-15 18:56N 41°16' W 072°06'612.7
2017-Oct-15 18:30N 41°12' W 072°11'4 8.0
2017-Oct-15 18:00N 41°09' W 072°14'0 0.0
2017-Oct-15 17:30N 41°09' W 072°14'4 7.5
2017-Oct-15 16:59N 41°13' W 072°11'7 3.8
2017-Oct-15 15:06N 41°18' W 072°05'112.3
2017-Oct-15 15:00N 41°17' W 072°06'10 9.8
2017-Oct-15 13:59N 41°09' W 072°14'0 0.1
2017-Oct-15 13:28N 41°09' W 072°14'5 8.6
2017-Oct-15 12:55N 41°13' W 072°11'6 0.5
2017-Oct-15 00:58N 41°17' W 072°06'612.8
2017-Oct-15 00:30N 41°13' W 072°11'4 3.0
2017-Oct-14 23:17N 41°09' W 072°13'310.7
2017-Oct-14 23:00N 41°12' W 072°13'6 3.1
2017-Oct-14 21:01N 41°16' W 072°07'012.0
2017-Oct-14 21:01N 41°16' W 072°07'510.8
2017-Oct-14 20:31N 41°12' W 072°12'3 2.8
2017-Oct-14 19:16N 41°09' W 072°14'310.1
2017-Oct-14 19:00N 41°12' W 072°12'7 3.7
2017-Oct-14 17:02N 41°17' W 072°05'012.0
2017-Oct-14 17:00N 41°16' W 072°05'612.6
2017-Oct-14 16:30N 41°12' W 072°12'3 2.8
2017-Oct-14 15:23N 41°09' W 072°13'4 9.8
2017-Oct-14 15:00N 41°13' W 072°11'6 3.1
2017-Oct-14 13:03N 41°17' W 072°06'113.1
2017-Oct-14 12:56N 41°16' W 072°07'512.8
2017-Oct-14 12:30N 41°12' W 072°12'3 2.8
2017-Oct-14 11:21N 41°09' W 072°14'0 0.0
2017-Oct-14 10:55N 41°09' W 072°14'9 0.7
2017-Oct-13 23:01N 41°16' W 072°07'012.1
2017-Oct-13 22:59N 41°16' W 072°08'712.0
2017-Oct-13 22:26N 41°11' W 072°13'1 1.4
2017-Oct-13 21:29N 41°09' W 072°13'9 3.9
2017-Oct-13 19:16N 41°16' W 072°07'310.7
2017-Oct-13 19:01N 41°14' W 072°09'510.5
2017-Oct-13 18:30N 41°10' W 072°13'1 0.6
2017-Oct-13 17:33N 41°09' W 072°13'1 5.4
2017-Oct-13 17:20N 41°11' W 072°13'411.1
2017-Oct-13 17:00N 41°13' W 072°10'4 2.2
2017-Oct-13 15:11N 41°16' W 072°06'212.3
2017-Oct-13 15:00N 41°14' W 072°08'611.9
2017-Oct-13 14:30N 41°10' W 072°13'1 1.8
2017-Oct-13 13:54N 41°09' W 072°14'1 2.4
2017-Oct-13 13:25N 41°10' W 072°13'3 7.6
2017-Oct-13 13:00N 41°12' W 072°11'6 0.5
2017-Oct-13 01:03N 41°17' W 072°05'112.2
2017-Oct-13 00:59N 41°16' W 072°06'613.2
2017-Oct-13 00:30N 41°12' W 072°12'3 6.2
2017-Oct-12 23:59N 41°09' W 072°14'1 1.7
2017-Oct-12 23:20N 41°10' W 072°13'3 9.0
2017-Oct-12 22:59N 41°13' W 072°11'6 2.9
2017-Oct-12 21:01N 41°17' W 072°06'012.3
2017-Oct-12 21:01N 41°17' W 072°07'611.2
2017-Oct-12 20:30N 41°13' W 072°12'4 3.0
2017-Oct-12 19:18N 41°09' W 072°13'310.8
2017-Oct-12 18:59N 41°13' W 072°12'  

Dump ship's entire track history